AIRPORT ID: KTHM

DATE: 2023-03-29 ZULU TIME: 13.55 LOCAL TIME: 7.55


METAR KTHM 291355Z AUTO 34005KT 10SM 03/M07 A2991

ALTIMETER: A2991 Q1013

DENSITY ALT: 1700 Ft

WIND DIRECT: 360

WIND SPEED: 5 Gust

WIND CONDITIONS:

VISIBILTY: 10SM 9999M

TEMPERATURE: 37 F 3 C

DEW POINT: 20 F -7 C

HUMID: 51%

LCL: Above 5,000 feet

RADIO CHECK: 0

ADVISARIES: 0

GREETINGS: 0

CONVERSATIONS: 0